Time,TemperatureF,DewpointF,PressureIn,WindDirection,WindDirectionDegrees,WindSpeedMPH,WindSpeedGustMPH,Humidity,HourlyPrecipIn,Conditions,Clouds,dailyrainin,SoftwareType,DateUTC
2013-02-18 00:00:00,12.4,-22.8,27.32,North,0,0.0,0.0,19,0.00,NA,NA,-99.99,wxupload 3.5,2013-02-18 05:00:00,
2013-02-18 00:02:00,12.6,-22.6,27.32,North,0,0.0,0.0,19,0.00,NA,NA,-99.99,wxupload 3.5,2013-02-18 05:02:00,
2013-02-18 00:08:00,12.4,-22.8,27.32,North,0,0.0,0.0,19,0.00,NA,NA,-99.99,wxupload 3.5,2013-02-18 05:08:00,
2013-02-18 00:14:00,12.2,-22.9,27.32,North,0,0.0,0.0,19,0.00,NA,NA,-99.99,wxupload 3.5,2013-02-18 05:14:00,
2013-02-18 00:16:00,12.2,-22.9,27.32,North,0,0.0,0.0,19,0.00,NA,NA,-99.99,wxupload 3.5,2013-02-18 05:16:00,
2013-02-18 00:22:00,12.2,-22.9,27.32,North,0,0.0,0.0,19,0.00,NA,NA,-99.99,wxupload 3.5,2013-02-18 05:22:00,
2013-02-18 00:28:00,12.2,-22.9,27.32,North,0,0.0,0.0,19,0.00,NA,NA,-99.99,wxupload 3.5,2013-02-18 05:28:00,
2013-02-18 00:34:00,12.2,-22.9,27.35,North,0,0.0,0.0,19,0.00,NA,NA,-99.99,wxupload 3.5,2013-02-18 05:34:00,
2013-02-18 00:40:00,12.2,-22.9,27.35,North,0,0.0,0.0,19,0.00,NA,NA,-99.99,wxupload 3.5,2013-02-18 05:40:00,
2013-02-18 00:46:00,12.2,-22.9,27.35,North,0,0.0,0.0,19,0.00,NA,NA,-99.99,wxupload 3.5,2013-02-18 05:46:00,
2013-02-18 00:52:00,12.0,-23.1,27.35,North,0,0.0,0.0,19,0.00,NA,NA,-99.99,wxupload 3.5,2013-02-18 05:52:00,
2013-02-18 00:58:00,12.0,-23.1,27.35,North,0,0.0,0.0,19,0.00,NA,NA,-99.99,wxupload 3.5,2013-02-18 05:58:00,
2013-02-18 01:04:00,12.0,-23.1,27.35,North,0,0.0,0.0,19,0.00,NA,NA,-99.99,wxupload 3.5,2013-02-18 06:04:00,
2013-02-18 01:10:00,12.2,-22.9,27.35,North,0,0.0,0.0,19,0.00,NA,NA,-99.99,wxupload 3.5,2013-02-18 06:10:00,
2013-02-18 01:16:00,12.0,-23.1,27.35,North,0,0.0,0.0,19,0.00,NA,NA,-99.99,wxupload 3.5,2013-02-18 06:16:00,
2013-02-18 01:22:00,12.0,-23.1,27.35,North,0,0.0,0.0,19,0.00,NA,NA,-99.99,wxupload 3.5,2013-02-18 06:22:00,
2013-02-18 01:28:00,12.0,-23.1,27.35,North,0,0.0,0.0,19,0.00,NA,NA,-99.99,wxupload 3.5,2013-02-18 06:28:00,
2013-02-18 01:34:00,12.0,-23.1,27.35,North,0,0.0,0.0,19,0.00,NA,NA,-99.99,wxupload 3.5,2013-02-18 06:34:00,
2013-02-18 01:40:00,12.0,-23.1,27.35,North,0,0.0,0.0,19,0.00,NA,NA,-99.99,wxupload 3.5,2013-02-18 06:40:00,
2013-02-18 01:46:00,11.8,-23.2,27.35,North,0,0.0,0.0,19,0.00,NA,NA,-99.99,wxupload 3.5,2013-02-18 06:46:00,
2013-02-18 01:52:00,11.8,-23.2,27.35,North,0,0.0,0.0,19,0.00,NA,NA,-99.99,wxupload 3.5,2013-02-18 06:52:00,
2013-02-18 01:58:00,11.8,-23.2,27.35,North,0,0.0,0.0,19,0.00,NA,NA,-99.99,wxupload 3.5,2013-02-18 06:58:00,
2013-02-18 02:04:00,11.8,-23.2,27.35,North,0,0.0,0.0,19,0.00,NA,NA,-99.99,wxupload 3.5,2013-02-18 07:04:00,
2013-02-18 02:10:00,11.8,-23.2,27.35,North,0,0.0,0.0,19,0.00,NA,NA,-99.99,wxupload 3.5,2013-02-18 07:10:00,
2013-02-18 02:16:00,11.7,-23.4,27.35,North,0,0.0,0.0,19,0.00,NA,NA,-99.99,wxupload 3.5,2013-02-18 07:16:00,
2013-02-18 02:22:00,11.7,-23.4,27.35,North,0,0.0,0.0,19,0.00,NA,NA,-99.99,wxupload 3.5,2013-02-18 07:22:00,
2013-02-18 02:28:00,11.7,-23.4,27.35,North,0,0.0,0.0,19,0.00,NA,NA,-99.99,wxupload 3.5,2013-02-18 07:28:00,
2013-02-18 02:34:00,11.8,-23.2,27.35,North,0,0.0,0.0,19,0.00,NA,NA,-99.99,wxupload 3.5,2013-02-18 07:34:00,
2013-02-18 02:40:00,11.7,-23.4,27.35,North,0,0.0,0.0,19,0.00,NA,NA,-99.99,wxupload 3.5,2013-02-18 07:40:00,
2013-02-18 02:46:00,11.8,-23.2,27.35,North,0,0.0,0.0,19,0.00,NA,NA,-99.99,wxupload 3.5,2013-02-18 07:46:00,
2013-02-18 02:52:00,11.7,-23.4,27.35,North,0,0.0,0.0,19,0.00,NA,NA,-99.99,wxupload 3.5,2013-02-18 07:52:00,
2013-02-18 02:58:00,11.7,-23.4,27.35,North,0,0.0,0.0,19,0.00,NA,NA,-99.99,wxupload 3.5,2013-02-18 07:58:00,
2013-02-18 03:04:00,11.5,-23.5,27.35,North,0,0.0,0.0,19,0.00,NA,NA,-99.99,wxupload 3.5,2013-02-18 08:04:00,
2013-02-18 03:10:00,11.5,-23.5,27.35,North,0,0.0,0.0,19,0.00,NA,NA,-99.99,wxupload 3.5,2013-02-18 08:10:00,
2013-02-18 03:16:00,11.5,-23.5,27.35,North,0,0.0,0.0,19,0.00,NA,NA,-99.99,wxupload 3.5,2013-02-18 08:16:00,
2013-02-18 03:22:00,11.3,-23.7,27.35,North,0,0.0,0.0,19,0.00,NA,NA,-99.99,wxupload 3.5,2013-02-18 08:22:00,
2013-02-18 03:28:00,11.3,-23.7,27.35,North,0,0.0,0.0,19,0.00,NA,NA,-99.99,wxupload 3.5,2013-02-18 08:28:00,
2013-02-18 03:34:00,11.1,-23.8,27.35,North,0,0.0,0.0,19,0.00,NA,NA,-99.99,wxupload 3.5,2013-02-18 08:34:00,
2013-02-18 03:40:00,11.1,-23.8,27.35,North,0,0.0,0.0,19,0.00,NA,NA,-99.99,wxupload 3.5,2013-02-18 08:40:00,
2013-02-18 03:46:00,11.1,-23.8,27.35,North,0,0.0,0.0,19,0.00,NA,NA,-99.99,wxupload 3.5,2013-02-18 08:46:00,
2013-02-18 03:52:00,11.1,-23.8,27.35,North,0,0.0,0.0,19,0.00,NA,NA,-99.99,wxupload 3.5,2013-02-18 08:52:00,
2013-02-18 03:58:00,11.1,-23.8,27.35,North,0,0.0,0.0,19,0.00,NA,NA,-99.99,wxupload 3.5,2013-02-18 08:58:00,
2013-02-18 04:04:00,11.1,-23.8,27.35,North,0,0.0,0.0,19,0.00,NA,NA,-99.99,wxupload 3.5,2013-02-18 09:04:00,
2013-02-18 04:11:00,11.1,-23.8,27.35,North,0,0.0,0.0,19,0.00,NA,NA,-99.99,wxupload 3.5,2013-02-18 09:11:00,
2013-02-18 04:16:00,10.9,-24.0,27.35,North,0,0.0,0.0,19,0.00,NA,NA,-99.99,wxupload 3.5,2013-02-18 09:16:00,
2013-02-18 04:22:00,10.9,-24.0,27.37,North,0,0.0,0.0,19,0.00,NA,NA,-99.99,wxupload 3.5,2013-02-18 09:22:00,
2013-02-18 04:28:00,10.9,-24.0,27.37,North,0,0.0,0.0,19,0.00,NA,NA,-99.99,wxupload 3.5,2013-02-18 09:28:00,
2013-02-18 04:34:00,10.9,-24.0,27.37,North,0,0.0,0.0,19,0.00,NA,NA,-99.99,wxupload 3.5,2013-02-18 09:34:00,
2013-02-18 04:40:00,10.9,-24.0,27.37,North,0,0.0,0.0,19,0.00,NA,NA,-99.99,wxupload 3.5,2013-02-18 09:40:00,
2013-02-18 04:46:00,10.9,-24.0,27.37,North,0,0.0,0.0,19,0.00,NA,NA,-99.99,wxupload 3.5,2013-02-18 09:46:00,
2013-02-18 04:52:00,10.9,-24.0,27.37,North,0,0.0,0.0,19,0.00,NA,NA,-99.99,wxupload 3.5,2013-02-18 09:52:00,
2013-02-18 04:58:00,10.9,-24.0,27.37,North,0,0.0,0.0,19,0.00,NA,NA,-99.99,wxupload 3.5,2013-02-18 09:58:00,
2013-02-18 05:04:00,10.9,-24.0,27.37,North,0,0.0,0.0,19,0.00,NA,NA,-99.99,wxupload 3.5,2013-02-18 10:04:00,
2013-02-18 05:10:00,10.9,-24.0,27.37,North,0,0.0,0.0,19,0.00,NA,NA,-99.99,wxupload 3.5,2013-02-18 10:10:00,
2013-02-18 05:16:00,10.9,-24.0,27.37,North,0,0.0,0.0,19,0.00,NA,NA,-99.99,wxupload 3.5,2013-02-18 10:16:00,
2013-02-18 05:22:00,10.9,-24.0,27.40,North,0,0.0,0.0,19,0.00,NA,NA,-99.99,wxupload 3.5,2013-02-18 10:22:00,
2013-02-18 05:28:00,11.1,-23.8,27.40,North,0,0.0,0.0,19,0.00,NA,NA,-99.99,wxupload 3.5,2013-02-18 10:28:00,
2013-02-18 05:34:00,11.1,-23.8,27.40,North,0,0.0,0.0,19,0.00,NA,NA,-99.99,wxupload 3.5,2013-02-18 10:34:00,
2013-02-18 05:40:00,11.1,-23.8,27.40,North,0,0.0,0.0,19,0.00,NA,NA,-99.99,wxupload 3.5,2013-02-18 10:40:00,
2013-02-18 05:46:00,11.1,-23.8,27.40,North,0,0.0,0.0,19,0.00,NA,NA,-99.99,wxupload 3.5,2013-02-18 10:46:00,
2013-02-18 05:52:00,11.1,-23.8,27.40,North,0,0.0,0.0,19,0.00,NA,NA,-99.99,wxupload 3.5,2013-02-18 10:52:00,
2013-02-18 05:58:00,11.1,-23.8,27.40,North,0,0.0,0.0,19,0.00,NA,NA,-99.99,wxupload 3.5,2013-02-18 10:58:00,
2013-02-18 06:04:00,11.3,-23.7,27.40,North,0,0.0,0.0,19,0.00,NA,NA,-99.99,wxupload 3.5,2013-02-18 11:04:00,
2013-02-18 06:10:00,11.3,-23.7,27.40,North,0,0.0,0.0,19,0.00,NA,NA,-99.99,wxupload 3.5,2013-02-18 11:10:00,
2013-02-18 06:16:00,11.3,-23.7,27.40,North,0,0.0,0.0,19,0.00,NA,NA,-99.99,wxupload 3.5,2013-02-18 11:16:00,
2013-02-18 06:22:00,11.3,-23.7,27.40,North,0,0.0,0.0,19,0.00,NA,NA,-99.99,wxupload 3.5,2013-02-18 11:22:00,
2013-02-18 06:28:00,11.7,-23.4,27.40,North,0,0.0,0.0,19,0.00,NA,NA,-99.99,wxupload 3.5,2013-02-18 11:28:00,
2013-02-18 06:34:00,11.7,-23.4,27.40,North,0,0.0,0.0,19,0.00,NA,NA,-99.99,wxupload 3.5,2013-02-18 11:34:00,
2013-02-18 06:40:00,11.7,-23.4,27.40,North,0,0.0,0.0,19,0.00,NA,NA,-99.99,wxupload 3.5,2013-02-18 11:40:00,
2013-02-18 06:46:00,11.7,-23.4,27.40,North,0,0.0,0.0,19,0.00,NA,NA,-99.99,wxupload 3.5,2013-02-18 11:46:00,
2013-02-18 06:52:00,11.7,-23.4,27.43,North,0,0.0,0.0,19,0.00,NA,NA,-99.99,wxupload 3.5,2013-02-18 11:52:00,
2013-02-18 06:58:00,11.8,-23.2,27.43,North,0,0.0,0.0,19,0.00,NA,NA,-99.99,wxupload 3.5,2013-02-18 11:58:00,
2013-02-18 07:04:00,11.8,-23.2,27.43,North,0,0.0,0.0,19,0.00,NA,NA,-99.99,wxupload 3.5,2013-02-18 12:04:00,
2013-02-18 07:10:00,11.8,-23.2,27.43,North,0,0.0,0.0,19,0.00,NA,NA,-99.99,wxupload 3.5,2013-02-18 12:10:00,
2013-02-18 07:16:00,12.0,-23.1,27.43,North,0,0.0,0.0,19,0.00,NA,NA,-99.99,wxupload 3.5,2013-02-18 12:16:00,
2013-02-18 07:22:00,12.2,-22.9,27.43,North,0,0.0,0.0,19,0.00,NA,NA,-99.99,wxupload 3.5,2013-02-18 12:22:00,
2013-02-18 07:28:00,12.6,-22.6,27.43,North,0,0.0,0.0,19,0.00,NA,NA,-99.99,wxupload 3.5,2013-02-18 12:28:00,
2013-02-18 07:34:00,12.7,-22.4,27.43,North,0,0.0,0.0,19,0.00,NA,NA,-99.99,wxupload 3.5,2013-02-18 12:34:00,
2013-02-18 07:40:00,12.9,-22.3,27.43,North,0,0.0,0.0,19,0.00,NA,NA,-99.99,wxupload 3.5,2013-02-18 12:40:00,
2013-02-18 07:46:00,13.3,-22.0,27.43,North,0,0.0,0.0,19,0.00,NA,NA,-99.99,wxupload 3.5,2013-02-18 12:46:00,
2013-02-18 07:52:00,13.6,-21.7,27.43,North,0,0.0,0.0,19,0.00,NA,NA,-99.99,wxupload 3.5,2013-02-18 12:52:00,
2013-02-18 07:58:00,14.2,-21.2,27.43,North,0,0.0,0.0,19,0.00,NA,NA,-99.99,wxupload 3.5,2013-02-18 12:58:00,
2013-02-18 08:04:00,14.5,-20.9,27.46,North,0,0.0,0.0,19,0.00,NA,NA,-99.99,wxupload 3.5,2013-02-18 13:04:00,
2013-02-18 08:10:00,15.3,-20.3,27.46,North,0,0.0,0.0,19,0.00,NA,NA,-99.99,wxupload 3.5,2013-02-18 13:10:00,
2013-02-18 08:16:00,15.6,-20.0,27.46,North,0,0.0,0.0,19,0.00,NA,NA,-99.99,wxupload 3.5,2013-02-18 13:16:00,
2013-02-18 08:22:00,15.8,-19.8,27.46,North,0,0.0,0.0,19,0.00,NA,NA,-99.99,wxupload 3.5,2013-02-18 13:22:00,
2013-02-18 08:28:00,16.3,-20.4,27.46,North,0,0.0,0.0,18,0.00,NA,NA,-99.99,wxupload 3.5,2013-02-18 13:28:00,
2013-02-18 08:34:00,16.5,-20.3,27.46,North,0,0.0,0.0,18,0.00,NA,NA,-99.99,wxupload 3.5,2013-02-18 13:34:00,
2013-02-18 08:40:00,16.5,-20.3,27.46,North,0,0.0,0.0,18,0.00,NA,NA,-99.99,wxupload 3.5,2013-02-18 13:40:00,
2013-02-18 08:46:00,16.9,-20.0,27.46,North,0,0.0,0.0,18,0.00,NA,NA,-99.99,wxupload 3.5,2013-02-18 13:46:00,
2013-02-18 08:52:00,17.2,-19.7,27.46,North,0,0.0,0.0,18,0.00,NA,NA,-99.99,wxupload 3.5,2013-02-18 13:52:00,
2013-02-18 08:58:00,17.8,-19.2,27.46,North,0,0.0,0.0,18,0.00,NA,NA,-99.99,wxupload 3.5,2013-02-18 13:58:00,
2013-02-18 09:04:00,18.7,-18.4,27.46,North,0,0.0,0.0,18,0.00,NA,NA,-99.99,wxupload 3.5,2013-02-18 14:04:00,
2013-02-18 09:10:00,19.6,-18.8,27.46,North,0,0.0,0.0,17,0.00,NA,NA,-99.99,wxupload 3.5,2013-02-18 14:10:00,
2013-02-18 09:16:00,20.3,-18.2,27.46,North,0,0.0,0.0,17,0.00,NA,NA,-99.99,wxupload 3.5,2013-02-18 14:16:00,
2013-02-18 09:22:00,21.0,-17.6,27.46,North,0,0.0,0.0,17,0.00,NA,NA,-99.99,wxupload 3.5,2013-02-18 14:22:00,
2013-02-18 09:28:00,21.7,-17.0,27.46,North,0,0.0,0.0,17,0.00,NA,NA,-99.99,wxupload 3.5,2013-02-18 14:28:00,
2013-02-18 09:34:00,22.5,-13.1,27.46,North,0,0.0,0.0,20,0.00,NA,NA,-99.99,wxupload 3.5,2013-02-18 14:34:00,
2013-02-18 09:40:00,22.8,-12.8,27.46,North,0,0.0,0.0,20,0.00,NA,NA,-99.99,wxupload 3.5,2013-02-18 14:40:00,
2013-02-18 09:46:00,23.7,-13.1,27.46,North,0,0.0,0.0,19,0.00,NA,NA,-99.99,wxupload 3.5,2013-02-18 14:46:00,
2013-02-18 09:52:00,24.3,-12.6,27.49,North,0,0.0,0.0,19,0.00,NA,NA,-99.99,wxupload 3.5,2013-02-18 14:52:00,
2013-02-18 09:58:00,25.0,-12.0,27.49,North,0,0.0,0.0,19,0.00,NA,NA,-99.99,wxupload 3.5,2013-02-18 14:58:00,
2013-02-18 10:04:00,25.5,-11.5,27.49,North,0,0.0,0.0,19,0.00,NA,NA,-99.99,wxupload 3.5,2013-02-18 15:04:00,
2013-02-18 10:10:00,26.2,-10.9,27.46,North,0,0.0,0.0,19,0.00,NA,NA,-99.99,wxupload 3.5,2013-02-18 15:10:00,
2013-02-18 10:16:00,26.6,-10.6,27.46,North,0,0.0,0.0,19,0.00,NA,NA,-99.99,wxupload 3.5,2013-02-18 15:16:00,
2013-02-18 10:22:00,27.3,-11.1,27.46,North,0,0.0,0.0,18,0.00,NA,NA,-99.99,wxupload 3.5,2013-02-18 15:22:00,
2013-02-18 10:28:00,27.9,-10.6,27.46,North,0,0.0,0.0,18,0.00,NA,NA,-99.99,wxupload 3.5,2013-02-18 15:28:00,
2013-02-18 10:36:00,28.2,-10.3,27.46,North,0,0.0,0.0,18,0.00,NA,NA,-99.99,wxupload 3.5,2013-02-18 15:36:00,
2013-02-18 10:42:00,28.6,-10.0,27.46,North,0,0.0,0.0,18,0.00,NA,NA,-99.99,wxupload 3.5,2013-02-18 15:42:00,
2013-02-18 10:48:00,29.5,-9.3,27.46,North,0,0.0,0.0,18,0.00,NA,NA,-99.99,wxupload 3.5,2013-02-18 15:48:00,
2013-02-18 10:54:00,29.8,-9.0,27.46,North,0,0.0,0.0,18,0.00,NA,NA,-99.99,wxupload 3.5,2013-02-18 15:54:00,
2013-02-18 11:00:00,30.2,-8.7,27.46,North,0,0.0,0.0,18,0.00,NA,NA,-99.99,wxupload 3.5,2013-02-18 16:00:00,
2013-02-18 11:06:00,30.6,-8.4,27.46,North,0,0.0,0.0,18,0.00,NA,NA,-99.99,wxupload 3.5,2013-02-18 16:06:00,
2013-02-18 11:12:00,30.6,-8.4,27.46,North,0,0.0,0.0,18,0.00,NA,NA,-99.99,wxupload 3.5,2013-02-18 16:12:00,
2013-02-18 11:18:00,31.1,-7.9,27.46,North,0,0.0,0.0,18,0.00,NA,NA,-99.99,wxupload 3.5,2013-02-18 16:18:00,
2013-02-18 11:24:00,31.5,-7.6,27.46,North,0,0.0,0.0,18,0.00,NA,NA,-99.99,wxupload 3.5,2013-02-18 16:24:00,
2013-02-18 11:30:00,31.5,-7.6,27.46,North,0,0.0,0.0,18,0.00,NA,NA,-99.99,wxupload 3.5,2013-02-18 16:30:00,
2013-02-18 11:36:00,32.5,-6.7,27.46,North,0,0.0,0.0,18,0.00,NA,NA,-99.99,wxupload 3.5,2013-02-18 16:36:00,
2013-02-18 11:42:00,32.7,-6.5,27.46,North,0,0.0,0.0,18,0.00,NA,NA,-99.99,wxupload 3.5,2013-02-18 16:42:00,
2013-02-18 11:48:00,32.5,-6.7,27.46,North,0,0.0,0.0,18,0.00,NA,NA,-99.99,wxupload 3.5,2013-02-18 16:48:00,
2013-02-18 11:54:00,32.7,-6.5,27.46,North,0,0.0,0.0,18,0.00,NA,NA,-99.99,wxupload 3.5,2013-02-18 16:54:00,
2013-02-18 12:00:00,32.7,-6.5,27.46,North,0,0.0,0.0,18,0.00,NA,NA,-99.99,wxupload 3.5,2013-02-18 17:00:00,
2013-02-18 12:06:00,33.1,-6.2,27.46,North,0,0.0,0.0,18,0.00,NA,NA,-99.99,wxupload 3.5,2013-02-18 17:06:00,
2013-02-18 12:12:00,33.3,-6.1,27.46,North,0,0.0,0.0,18,0.00,NA,NA,-99.99,wxupload 3.5,2013-02-18 17:12:00,
2013-02-18 12:18:00,33.4,-5.9,27.46,North,0,0.0,0.0,18,0.00,NA,NA,-99.99,wxupload 3.5,2013-02-18 17:18:00,
2013-02-18 12:24:00,33.3,-6.1,27.46,North,0,0.0,0.0,18,0.00,NA,NA,-99.99,wxupload 3.5,2013-02-18 17:24:00,
2013-02-18 12:30:00,33.3,-6.1,27.46,North,0,0.0,0.0,18,0.00,NA,NA,-99.99,wxupload 3.5,2013-02-18 17:30:00,
2013-02-18 12:36:00,33.6,-5.8,27.43,North,0,0.0,0.0,18,0.00,NA,NA,-99.99,wxupload 3.5,2013-02-18 17:36:00,
2013-02-18 12:42:00,33.6,-5.8,27.43,North,0,0.0,0.0,18,0.00,NA,NA,-99.99,wxupload 3.5,2013-02-18 17:42:00,
2013-02-18 12:48:00,33.4,-5.9,27.43,North,0,0.0,0.0,18,0.00,NA,NA,-99.99,wxupload 3.5,2013-02-18 17:48:00,
2013-02-18 12:54:00,33.8,-6.8,27.43,North,0,0.0,0.0,17,0.00,NA,NA,-99.99,wxupload 3.5,2013-02-18 17:54:00,
2013-02-18 13:00:00,34.2,-6.5,27.43,North,0,0.0,0.0,17,0.00,NA,NA,-99.99,wxupload 3.5,2013-02-18 18:00:00,
2013-02-18 13:06:00,34.5,-6.2,27.43,North,0,0.0,0.0,17,0.00,NA,NA,-99.99,wxupload 3.5,2013-02-18 18:06:00,
2013-02-18 13:12:00,34.7,-6.1,27.43,North,0,0.0,0.0,17,0.00,NA,NA,-99.99,wxupload 3.5,2013-02-18 18:12:00,
2013-02-18 13:18:00,34.5,-6.2,27.43,North,0,0.0,0.0,17,0.00,NA,NA,-99.99,wxupload 3.5,2013-02-18 18:18:00,
2013-02-18 13:24:00,34.5,-6.2,27.43,North,0,0.0,0.0,17,0.00,NA,NA,-99.99,wxupload 3.5,2013-02-18 18:24:00,
2013-02-18 13:30:00,34.7,-6.1,27.43,North,0,0.0,0.0,17,0.00,NA,NA,-99.99,wxupload 3.5,2013-02-18 18:30:00,
2013-02-18 13:36:00,34.5,-6.2,27.40,North,0,0.0,0.0,17,0.00,NA,NA,-99.99,wxupload 3.5,2013-02-18 18:36:00,
2013-02-18 13:42:00,34.7,-6.1,27.40,North,0,0.0,0.0,17,0.00,NA,NA,-99.99,wxupload 3.5,2013-02-18 18:42:00,
2013-02-18 13:48:00,34.5,-6.2,27.40,North,0,0.0,0.0,17,0.00,NA,NA,-99.99,wxupload 3.5,2013-02-18 18:48:00,
2013-02-18 13:54:00,34.3,-6.4,27.40,North,0,0.0,0.0,17,0.00,NA,NA,-99.99,wxupload 3.5,2013-02-18 18:54:00,
2013-02-18 14:00:00,34.7,-6.1,27.40,North,0,0.0,0.0,17,0.00,NA,NA,-99.99,wxupload 3.5,2013-02-18 19:00:00,
2013-02-18 14:06:00,34.9,-5.9,27.40,North,0,0.0,0.0,17,0.00,NA,NA,-99.99,wxupload 3.5,2013-02-18 19:06:00,
2013-02-18 14:12:00,35.1,-5.8,27.40,North,0,0.0,0.0,17,0.00,NA,NA,-99.99,wxupload 3.5,2013-02-18 19:12:00,
2013-02-18 14:20:00,34.9,-5.9,27.40,North,0,0.0,0.0,17,0.00,NA,NA,-99.99,wxupload 3.5,2013-02-18 19:20:00,
2013-02-18 14:26:00,35.1,-5.8,27.40,North,0,0.0,0.0,17,0.00,NA,NA,-99.99,wxupload 3.5,2013-02-18 19:26:00,
2013-02-18 14:32:00,35.2,-5.6,27.40,North,0,0.0,0.0,17,0.00,NA,NA,-99.99,wxupload 3.5,2013-02-18 19:32:00,
2013-02-18 14:38:00,35.4,-5.4,27.40,North,0,0.0,0.0,17,0.00,NA,NA,-99.99,wxupload 3.5,2013-02-18 19:38:00,
2013-02-18 14:44:00,35.4,-5.4,27.40,North,0,0.0,0.0,17,0.00,NA,NA,-99.99,wxupload 3.5,2013-02-18 19:44:00,
2013-02-18 14:50:00,35.4,-5.4,27.40,North,0,0.0,0.0,17,0.00,NA,NA,-99.99,wxupload 3.5,2013-02-18 19:50:00,
2013-02-18 14:56:00,35.6,-5.3,27.40,North,0,0.0,0.0,17,0.00,NA,NA,-99.99,wxupload 3.5,2013-02-18 19:56:00,
2013-02-18 15:02:00,35.6,-5.3,27.40,North,0,0.0,0.0,17,0.00,NA,NA,-99.99,wxupload 3.5,2013-02-18 20:02:00,
2013-02-18 15:08:00,35.6,-5.3,27.40,North,0,0.0,0.0,17,0.00,NA,NA,-99.99,wxupload 3.5,2013-02-18 20:08:00,
2013-02-18 15:14:00,35.2,-5.6,27.40,North,0,0.0,0.0,17,0.00,NA,NA,-99.99,wxupload 3.5,2013-02-18 20:14:00,
2013-02-18 15:20:00,35.2,-5.6,27.40,North,0,0.0,0.0,17,0.00,NA,NA,-99.99,wxupload 3.5,2013-02-18 20:20:00,
2013-02-18 15:26:00,35.2,-5.6,27.40,North,0,0.0,0.0,17,0.00,NA,NA,-99.99,wxupload 3.5,2013-02-18 20:26:00,
2013-02-18 15:32:00,35.2,-5.6,27.40,North,0,0.0,0.0,17,0.00,NA,NA,-99.99,wxupload 3.5,2013-02-18 20:32:00,
2013-02-18 15:38:00,35.4,-5.4,27.40,North,0,0.0,0.0,17,0.00,NA,NA,-99.99,wxupload 3.5,2013-02-18 20:38:00,
2013-02-18 15:44:00,35.6,-5.3,27.40,North,0,0.0,0.0,17,0.00,NA,NA,-99.99,wxupload 3.5,2013-02-18 20:44:00,
2013-02-18 15:50:00,35.6,-5.3,27.40,North,0,0.0,0.0,17,0.00,NA,NA,-99.99,wxupload 3.5,2013-02-18 20:50:00,
2013-02-18 15:56:00,35.6,-5.3,27.40,North,0,0.0,0.0,17,0.00,NA,NA,-99.99,wxupload 3.5,2013-02-18 20:56:00,
2013-02-18 16:02:00,35.4,-5.4,27.40,North,0,0.0,0.0,17,0.00,NA,NA,-99.99,wxupload 3.5,2013-02-18 21:02:00,
2013-02-18 16:08:00,35.2,-5.6,27.37,North,0,0.0,0.0,17,0.00,NA,NA,-99.99,wxupload 3.5,2013-02-18 21:08:00,
2013-02-18 16:14:00,35.1,-5.8,27.37,North,0,0.0,0.0,17,0.00,NA,NA,-99.99,wxupload 3.5,2013-02-18 21:14:00,
2013-02-18 16:20:00,34.9,-5.9,27.37,North,0,0.0,0.0,17,0.00,NA,NA,-99.99,wxupload 3.5,2013-02-18 21:20:00,
2013-02-18 16:26:00,34.9,-5.9,27.37,North,0,0.0,0.0,17,0.00,NA,NA,-99.99,wxupload 3.5,2013-02-18 21:26:00,
2013-02-18 16:32:00,34.9,-5.9,27.37,North,0,0.0,0.0,17,0.00,NA,NA,-99.99,wxupload 3.5,2013-02-18 21:32:00,
2013-02-18 16:38:00,34.9,-5.9,27.37,North,0,0.0,0.0,17,0.00,NA,NA,-99.99,wxupload 3.5,2013-02-18 21:38:00,
2013-02-18 16:44:00,34.7,-6.1,27.37,North,0,0.0,0.0,17,0.00,NA,NA,-99.99,wxupload 3.5,2013-02-18 21:44:00,
2013-02-18 16:50:00,34.7,-6.1,27.40,North,0,0.0,0.0,17,0.00,NA,NA,-99.99,wxupload 3.5,2013-02-18 21:50:00,
2013-02-18 16:56:00,34.5,-6.2,27.40,North,0,0.0,0.0,17,0.00,NA,NA,-99.99,wxupload 3.5,2013-02-18 21:56:00,
2013-02-18 17:02:00,34.3,-6.4,27.40,North,0,0.0,0.0,17,0.00,NA,NA,-99.99,wxupload 3.5,2013-02-18 22:02:00,
2013-02-18 17:08:00,34.3,-6.4,27.37,North,0,0.0,0.0,17,0.00,NA,NA,-99.99,wxupload 3.5,2013-02-18 22:08:00,
2013-02-18 17:14:00,34.2,-6.5,27.37,North,0,0.0,0.0,17,0.00,NA,NA,-99.99,wxupload 3.5,2013-02-18 22:14:00,
2013-02-18 17:20:00,34.0,-6.7,27.37,North,0,0.0,0.0,17,0.00,NA,NA,-99.99,wxupload 3.5,2013-02-18 22:20:00,
2013-02-18 17:28:00,33.8,-6.8,27.37,North,0,0.0,0.0,17,0.00,NA,NA,-99.99,wxupload 3.5,2013-02-18 22:28:00,
2013-02-18 17:34:00,33.8,-6.8,27.37,North,0,0.0,0.0,17,0.00,NA,NA,-99.99,wxupload 3.5,2013-02-18 22:34:00,
2013-02-18 17:40:00,33.8,-6.8,27.37,North,0,0.0,0.0,17,0.00,NA,NA,-99.99,wxupload 3.5,2013-02-18 22:40:00,
2013-02-18 17:46:00,33.6,-5.8,27.37,North,0,0.0,0.0,18,0.00,NA,NA,-99.99,wxupload 3.5,2013-02-18 22:46:00,
2013-02-18 17:52:00,33.4,-5.9,27.37,North,0,0.0,0.0,18,0.00,NA,NA,-99.99,wxupload 3.5,2013-02-18 22:52:00,
2013-02-18 17:58:00,33.3,-6.1,27.37,North,0,0.0,0.0,18,0.00,NA,NA,-99.99,wxupload 3.5,2013-02-18 22:58:00,
2013-02-18 18:04:00,33.3,-6.1,27.37,North,0,0.0,0.0,18,0.00,NA,NA,-99.99,wxupload 3.5,2013-02-18 23:04:00,
2013-02-18 18:10:00,33.1,-6.2,27.37,North,0,0.0,0.0,18,0.00,NA,NA,-99.99,wxupload 3.5,2013-02-18 23:10:00,
2013-02-18 18:16:00,33.1,-6.2,27.37,North,0,0.0,0.0,18,0.00,NA,NA,-99.99,wxupload 3.5,2013-02-18 23:16:00,
2013-02-18 18:22:00,32.9,-6.4,27.37,North,0,0.0,0.0,18,0.00,NA,NA,-99.99,wxupload 3.5,2013-02-18 23:22:00,
2013-02-18 18:28:00,32.9,-6.4,27.37,North,0,0.0,0.0,18,0.00,NA,NA,-99.99,wxupload 3.5,2013-02-18 23:28:00,
2013-02-18 18:34:00,32.7,-6.5,27.37,North,0,0.0,0.0,18,0.00,NA,NA,-99.99,wxupload 3.5,2013-02-18 23:34:00,
2013-02-18 18:40:00,32.7,-6.5,27.37,North,0,0.0,0.0,18,0.00,NA,NA,-99.99,wxupload 3.5,2013-02-18 23:40:00,
2013-02-18 18:46:00,32.7,-6.5,27.37,North,0,0.0,0.0,18,0.00,NA,NA,-99.99,wxupload 3.5,2013-02-18 23:46:00,
2013-02-18 18:52:00,32.7,-6.5,27.37,North,0,0.0,0.0,18,0.00,NA,NA,-99.99,wxupload 3.5,2013-02-18 23:52:00,
2013-02-18 18:58:00,32.9,-6.4,27.37,North,0,0.0,0.0,18,0.00,NA,NA,-99.99,wxupload 3.5,2013-02-18 23:58:00,
2013-02-18 19:04:00,32.9,-6.4,27.37,North,0,0.0,0.0,18,0.00,NA,NA,-99.99,wxupload 3.5,2013-02-19 00:04:00,
2013-02-18 19:10:00,32.7,-6.5,27.37,North,0,0.0,0.0,18,0.00,NA,NA,-99.99,wxupload 3.5,2013-02-19 00:10:00,
2013-02-18 19:16:00,32.7,-6.5,27.37,North,0,0.0,0.0,18,0.00,NA,NA,-99.99,wxupload 3.5,2013-02-19 00:16:00,
2013-02-18 19:22:00,32.5,-6.7,27.37,North,0,0.0,0.0,18,0.00,NA,NA,-99.99,wxupload 3.5,2013-02-19 00:22:00,
2013-02-18 19:28:00,32.5,-6.7,27.37,North,0,0.0,0.0,18,0.00,NA,NA,-99.99,wxupload 3.5,2013-02-19 00:28:00,
2013-02-18 19:34:00,32.5,-6.7,27.37,North,0,0.0,0.0,18,0.00,NA,NA,-99.99,wxupload 3.5,2013-02-19 00:34:00,
2013-02-18 19:40:00,32.5,-6.7,27.37,North,0,0.0,0.0,18,0.00,NA,NA,-99.99,wxupload 3.5,2013-02-19 00:40:00,
2013-02-18 19:46:00,32.5,-6.7,27.37,North,0,0.0,0.0,18,0.00,NA,NA,-99.99,wxupload 3.5,2013-02-19 00:46:00,
2013-02-18 19:52:00,32.5,-6.7,27.37,North,0,0.0,0.0,18,0.00,NA,NA,-99.99,wxupload 3.5,2013-02-19 00:52:00,
2013-02-18 19:58:00,32.7,-6.5,27.37,North,0,0.0,0.0,18,0.00,NA,NA,-99.99,wxupload 3.5,2013-02-19 00:58:00,
2013-02-18 20:04:00,33.1,-6.2,27.35,North,0,0.0,0.0,18,0.00,NA,NA,-99.99,wxupload 3.5,2013-02-19 01:04:00,
2013-02-18 20:10:00,33.1,-6.2,27.35,North,0,0.0,0.0,18,0.00,NA,NA,-99.99,wxupload 3.5,2013-02-19 01:10:00,
2013-02-18 20:16:00,33.4,-5.9,27.35,North,0,0.0,0.0,18,0.00,NA,NA,-99.99,wxupload 3.5,2013-02-19 01:16:00,
2013-02-18 20:22:00,33.6,-5.8,27.35,North,0,0.0,0.0,18,0.00,NA,NA,-99.99,wxupload 3.5,2013-02-19 01:22:00,
2013-02-18 20:28:00,33.8,-6.8,27.35,North,0,0.0,0.0,17,0.00,NA,NA,-99.99,wxupload 3.5,2013-02-19 01:28:00,
2013-02-18 20:34:00,34.0,-6.7,27.35,North,0,0.0,0.0,17,0.00,NA,NA,-99.99,wxupload 3.5,2013-02-19 01:34:00,
2013-02-18 20:40:00,34.0,-6.7,27.35,North,0,0.0,0.0,17,0.00,NA,NA,-99.99,wxupload 3.5,2013-02-19 01:40:00,
2013-02-18 20:46:00,33.8,-6.8,27.35,North,0,0.0,0.0,17,0.00,NA,NA,-99.99,wxupload 3.5,2013-02-19 01:46:00,
2013-02-18 20:52:00,33.6,-5.8,27.35,North,0,0.0,0.0,18,0.00,NA,NA,-99.99,wxupload 3.5,2013-02-19 01:52:00,
2013-02-18 20:58:00,33.6,-5.8,27.35,North,0,0.0,0.0,18,0.00,NA,NA,-99.99,wxupload 3.5,2013-02-19 01:58:00,
2013-02-18 21:04:00,33.6,-5.8,27.35,North,0,0.0,0.0,18,0.00,NA,NA,-99.99,wxupload 3.5,2013-02-19 02:04:00,
2013-02-18 21:10:00,33.6,-5.8,27.35,North,0,0.0,0.0,18,0.00,NA,NA,-99.99,wxupload 3.5,2013-02-19 02:10:00,
2013-02-18 21:16:00,34.0,-6.7,27.35,North,0,0.0,0.0,17,0.00,NA,NA,-99.99,wxupload 3.5,2013-02-19 02:16:00,
2013-02-18 21:22:00,34.5,-6.2,27.35,North,0,0.0,0.0,17,0.00,NA,NA,-99.99,wxupload 3.5,2013-02-19 02:22:00,
2013-02-18 21:28:00,34.5,-6.2,27.35,North,0,0.0,0.0,17,0.00,NA,NA,-99.99,wxupload 3.5,2013-02-19 02:28:00,
2013-02-18 21:35:00,34.7,-6.1,27.35,North,0,0.0,0.0,17,0.00,NA,NA,-99.99,wxupload 3.5,2013-02-19 02:35:00,
2013-02-18 21:42:00,34.7,-6.1,27.35,North,0,0.0,0.0,17,0.00,NA,NA,-99.99,wxupload 3.5,2013-02-19 02:42:00,
2013-02-18 21:48:00,34.7,-6.1,27.35,North,0,0.0,0.0,17,0.00,NA,NA,-99.99,wxupload 3.5,2013-02-19 02:48:00,
2013-02-18 21:54:00,34.9,-5.9,27.35,North,0,0.0,0.0,17,0.00,NA,NA,-99.99,wxupload 3.5,2013-02-19 02:54:00,
2013-02-18 22:00:00,35.1,-5.8,27.35,North,0,0.0,0.0,17,0.00,NA,NA,-99.99,wxupload 3.5,2013-02-19 03:00:00,
2013-02-18 22:06:00,35.2,-5.6,27.35,North,0,0.0,0.0,17,0.00,NA,NA,-99.99,wxupload 3.5,2013-02-19 03:06:00,
2013-02-18 22:12:00,35.4,-5.4,27.35,North,0,0.0,0.0,17,0.00,NA,NA,-99.99,wxupload 3.5,2013-02-19 03:12:00,
2013-02-18 22:18:00,35.4,-5.4,27.35,North,0,0.0,0.0,17,0.00,NA,NA,-99.99,wxupload 3.5,2013-02-19 03:18:00,
2013-02-18 22:24:00,35.4,-5.4,27.32,North,0,0.0,0.0,17,0.00,NA,NA,-99.99,wxupload 3.5,2013-02-19 03:24:00,
2013-02-18 22:30:00,35.2,-5.6,27.32,North,0,0.0,0.0,17,0.00,NA,NA,-99.99,wxupload 3.5,2013-02-19 03:30:00,
2013-02-18 22:36:00,35.2,-5.6,27.32,North,0,0.0,0.0,17,0.00,NA,NA,-99.99,wxupload 3.5,2013-02-19 03:36:00,
2013-02-18 22:42:00,35.2,-5.6,27.32,North,0,0.0,0.0,17,0.00,NA,NA,-99.99,wxupload 3.5,2013-02-19 03:42:00,
2013-02-18 22:48:00,35.1,-5.8,27.32,North,0,0.0,0.0,17,0.00,NA,NA,-99.99,wxupload 3.5,2013-02-19 03:48:00,
2013-02-18 22:54:00,34.9,-5.9,27.32,North,0,0.0,0.0,17,0.00,NA,NA,-99.99,wxupload 3.5,2013-02-19 03:54:00,
2013-02-18 23:00:00,34.9,-5.9,27.32,North,0,0.0,0.0,17,0.00,NA,NA,-99.99,wxupload 3.5,2013-02-19 04:00:00,
2013-02-18 23:06:00,35.1,-5.8,27.32,North,0,0.0,0.0,17,0.00,NA,NA,-99.99,wxupload 3.5,2013-02-19 04:06:00,
2013-02-18 23:12:00,35.1,-5.8,27.32,North,0,0.0,0.0,17,0.00,NA,NA,-99.99,wxupload 3.5,2013-02-19 04:12:00,
2013-02-18 23:18:00,35.1,-5.8,27.32,North,0,0.0,0.0,17,0.00,NA,NA,-99.99,wxupload 3.5,2013-02-19 04:18:00,
2013-02-18 23:24:00,35.1,-5.8,27.32,North,0,0.0,0.0,17,0.00,NA,NA,-99.99,wxupload 3.5,2013-02-19 04:24:00,
2013-02-18 23:30:00,35.2,-5.6,27.32,North,0,0.0,0.0,17,0.00,NA,NA,-99.99,wxupload 3.5,2013-02-19 04:30:00,
2013-02-18 23:36:00,35.2,-5.6,27.32,North,0,0.0,0.0,17,0.00,NA,NA,-99.99,wxupload 3.5,2013-02-19 04:36:00,
2013-02-18 23:42:00,35.2,-5.6,27.32,North,0,0.0,0.0,17,0.00,NA,NA,-99.99,wxupload 3.5,2013-02-19 04:42:00,
2013-02-18 23:48:00,35.4,-5.4,27.32,North,0,0.0,0.0,17,0.00,NA,NA,-99.99,wxupload 3.5,2013-02-19 04:48:00,
2013-02-18 23:54:00,35.4,-5.4,27.32,North,0,0.0,0.0,17,0.00,NA,NA,-99.99,wxupload 3.5,2013-02-19 04:54:00,